createdAt,value
2022-08-09T00:02:30.361Z,5.55
2022-08-09T00:07:44.286Z,2.45
2022-08-09T00:12:47.164Z,2.42
2022-08-09T00:18:05.297Z,2.05
2022-08-09T00:23:56.663Z,2.53
2022-08-09T00:28:35.553Z,2.35
2022-08-09T00:33:50.557Z,2.17
2022-08-09T00:38:53.456Z,2.22
2022-08-09T00:44:14.427Z,2.45
2022-08-09T00:49:18.271Z,1.75
2022-08-09T00:54:34.962Z,1.50
2022-08-09T00:59:46.392Z,1.83
2022-08-09T01:04:56.964Z,2.53
2022-08-09T01:09:58.961Z,1.80
2022-08-09T01:20:45.946Z,1.73
2022-08-09T01:26:26.128Z,1.70
2022-08-09T01:32:28.219Z,1.55
2022-08-09T01:36:55.145Z,1.77
2022-08-09T01:42:01.417Z,1.45
2022-08-09T01:47:07.800Z,1.73
2022-08-09T01:52:17.897Z,1.70
2022-08-09T01:57:27.257Z,1.75
2022-08-09T02:02:33.374Z,1.80
2022-08-09T02:08:35.882Z,1.80
2022-08-09T02:13:09.871Z,1.60
2022-08-09T02:18:12.306Z,1.70
2022-08-09T02:23:25.963Z,1.88
2022-08-09T02:28:43.401Z,1.73
2022-08-09T02:34:07.580Z,2.00
2022-08-09T02:39:20.022Z,1.95
2022-08-09T02:44:40.736Z,1.60
2022-08-09T02:50:01.813Z,1.88
2022-08-09T02:55:19.794Z,2.00
2022-08-09T03:00:26.369Z,2.30
2022-08-09T03:05:34.463Z,2.40
2022-08-09T03:10:38.289Z,2.42
2022-08-09T03:16:06.613Z,2.53
2022-08-09T03:21:05.808Z,2.20
2022-08-09T03:26:08.605Z,2.35
2022-08-09T03:31:22.544Z,2.00
2022-08-09T03:36:26.994Z,2.15
2022-08-09T03:41:45.909Z,1.70
2022-08-09T03:46:51.119Z,1.30
2022-08-09T03:52:00.125Z,1.40
2022-08-09T03:57:18.109Z,1.50
2022-08-09T04:02:30.563Z,1.20
2022-08-09T04:07:47.532Z,1.15
2022-08-09T04:12:55.322Z,1.20
2022-08-09T04:17:57.564Z,1.67
2022-08-09T04:23:00.048Z,1.30
2022-08-09T04:28:03.582Z,1.30
2022-08-09T04:33:05.931Z,1.35
2022-08-09T04:38:09.977Z,1.20
2022-08-09T04:43:12.373Z,0.88
2022-08-09T04:48:16.111Z,1.00
2022-08-09T04:53:18.473Z,0.63
2022-08-09T04:58:20.583Z,0.80
2022-08-09T05:03:41.176Z,0.98
2022-08-09T05:08:47.766Z,0.90
2022-08-09T05:13:50.231Z,0.98
2022-08-09T05:18:59.212Z,0.75
2022-08-09T05:24:03.937Z,1.00
2022-08-09T05:29:06.769Z,1.42
2022-08-09T05:34:08.763Z,1.10
2022-08-09T05:39:28.543Z,1.40
2022-08-09T05:44:32.803Z,1.17
2022-08-09T05:50:32.124Z,1.15
2022-08-09T05:54:57.219Z,1.15
2022-08-09T06:00:08.082Z,0.98
2022-08-09T06:05:14.276Z,0.95
2022-08-09T06:10:19.429Z,1.23
2022-08-09T06:15:21.503Z,1.17
2022-08-09T06:20:23.612Z,1.30
2022-08-09T06:25:26.542Z,0.70
2022-08-09T06:30:29.092Z,0.60
2022-08-09T06:35:56.468Z,0.70
2022-08-09T06:40:54.888Z,0.70
2022-08-09T06:46:10.545Z,1.00
2022-08-09T06:51:14.905Z,0.47
2022-08-09T06:56:18.955Z,1.05
2022-08-09T07:01:21.369Z,0.73
2022-08-09T07:06:27.901Z,0.73
2022-08-09T07:11:34.214Z,1.23
2022-08-09T07:16:55.419Z,0.90
2022-08-09T07:22:00.041Z,0.60
2022-08-09T07:27:02.547Z,0.80
2022-08-09T07:32:05.583Z,0.90
2022-08-09T07:37:15.582Z,1.08
2022-08-09T07:42:18.151Z,0.80
2022-08-09T07:47:20.873Z,0.80
2022-08-09T07:52:38.270Z,0.75
2022-08-09T07:57:46.847Z,0.60
2022-08-09T08:02:49.497Z,0.50
2022-08-09T08:08:43.231Z,0.75
2022-08-09T08:13:17.098Z,0.82
2022-08-09T08:18:22.282Z,0.93
2022-08-09T08:23:27.281Z,0.22
2022-08-09T08:28:32.832Z,0.57
2022-08-09T08:33:40.618Z,0.40
2022-08-09T08:38:56.389Z,0.57
2022-08-09T08:44:02.473Z,0.50
2022-08-09T08:49:07.585Z,0.40
2022-08-09T08:54:20.046Z,0.60
2022-08-09T08:59:22.943Z,0.40
2022-08-09T09:04:41.557Z,0.65
2022-08-09T09:10:01.979Z,0.52
2022-08-09T09:15:07.425Z,4.75
2022-08-09T09:20:15.338Z,0.60
2022-08-09T09:26:04.209Z,0.50
2022-08-09T09:31:17.560Z,0.63
2022-08-09T09:36:39.779Z,0.63
2022-08-09T09:41:54.302Z,0.52
2022-08-09T09:47:03.828Z,0.30
2022-08-09T09:52:16.298Z,0.77
2022-08-09T09:58:04.023Z,0.50
2022-08-09T10:02:56.238Z,0.57
2022-08-09T10:08:26.916Z,0.80
2022-08-09T10:13:43.261Z,0.50
2022-08-09T10:18:54.334Z,0.40
2022-08-09T10:24:00.417Z,0.52
2022-08-09T10:29:31.359Z,0.50
2022-08-09T10:34:33.963Z,0.43
2022-08-09T10:39:49.742Z,0.60
2022-08-09T10:45:10.628Z,0.73
2022-08-09T10:51:06.825Z,0.50
2022-08-09T10:56:27.705Z,0.50
2022-08-09T11:03:27.528Z,0.50
2022-08-09T11:07:03.626Z,0.45
2022-08-09T11:12:17.155Z,0.50
2022-08-09T11:17:22.317Z,0.45
2022-08-09T11:22:40.901Z,0.50
2022-08-09T11:28:02.735Z,0.38
2022-08-09T11:33:20.429Z,0.50
2022-08-09T11:38:28.533Z,0.40
2022-08-09T11:43:34.914Z,0.47
2022-08-09T11:48:50.758Z,0.75
2022-08-09T11:54:27.605Z,0.45
2022-08-09T11:59:33.668Z,0.30
2022-08-09T12:04:37.728Z,0.50
2022-08-09T12:09:40.395Z,0.30
2022-08-09T12:15:07.302Z,0.50
2022-08-09T12:20:21.983Z,0.30
2022-08-09T12:25:35.969Z,0.75
2022-08-09T12:30:40.061Z,0.43
2022-08-09T12:35:43.097Z,0.30
2022-08-09T12:40:47.968Z,0.70
2022-08-09T12:45:59.943Z,0.50
2022-08-09T12:51:03.930Z,0.45
2022-08-09T12:56:15.739Z,0.38
2022-08-09T13:01:30.282Z,0.40
2022-08-09T13:06:37.801Z,0.20
2022-08-09T13:11:46.926Z,0.40
2022-08-09T13:16:54.679Z,0.40
2022-08-09T13:23:00.420Z,0.65
2022-08-09T13:27:48.082Z,0.55
2022-08-09T13:32:57.522Z,0.40
2022-08-09T13:38:00.345Z,0.47
2022-08-09T13:43:05.130Z,0.50
2022-08-09T13:48:11.700Z,0.60
2022-08-09T13:53:16.809Z,0.60
2022-08-09T13:58:18.877Z,0.32
2022-08-09T14:04:02.336Z,0.45
2022-08-09T14:08:44.026Z,1.83
2022-08-09T14:14:22.003Z,1.15
2022-08-09T14:19:09.400Z,0.70
2022-08-09T14:24:22.013Z,0.47
2022-08-09T14:30:35.091Z,0.60
2022-08-09T14:34:56.879Z,0.40
2022-08-09T14:39:59.145Z,0.60
2022-08-09T14:46:40.171Z,0.77
2022-08-09T14:50:30.392Z,0.63
2022-08-09T14:55:33.163Z,0.70
2022-08-09T15:00:36.130Z,0.82
2022-08-09T15:05:39.599Z,0.95
2022-08-09T15:11:00.906Z,0.77
2022-08-09T15:16:07.881Z,1.58
2022-08-09T15:21:57.382Z,0.88
2022-08-09T15:26:32.446Z,0.70
2022-08-09T15:31:40.902Z,1.20
2022-08-09T15:36:48.216Z,1.42
2022-08-09T15:41:50.854Z,4.13
2022-08-09T15:46:53.112Z,1.55
2022-08-09T15:52:04.697Z,1.20
2022-08-09T15:57:09.471Z,1.23
2022-08-09T16:02:13.323Z,2.13
2022-08-09T16:07:16.256Z,1.42
2022-08-09T16:12:19.332Z,1.77
2022-08-09T16:17:22.061Z,1.55
2022-08-09T16:22:24.657Z,1.70
2022-08-09T16:27:29.885Z,2.20
2022-08-09T16:32:53.290Z,1.73
2022-08-09T16:37:56.994Z,1.98
2022-08-09T16:43:02.314Z,2.22
2022-08-09T16:48:39.216Z,2.30
2022-08-09T16:53:34.276Z,2.10
2022-08-09T16:58:39.767Z,2.17
2022-08-09T17:03:44.719Z,2.25
2022-08-09T17:09:01.559Z,3.17
2022-08-09T17:14:07.543Z,3.10
2022-08-09T17:19:10.647Z,3.88
2022-08-09T17:24:27.628Z,3.28
2022-08-09T17:29:37.945Z,3.58
2022-08-09T17:35:01.490Z,2.90
2022-08-09T17:40:06.996Z,2.97
2022-08-09T17:45:27.442Z,3.65
2022-08-09T17:50:56.004Z,3.30
2022-08-09T17:56:03.361Z,2.60
2022-08-09T18:01:10.148Z,3.13
2022-08-09T18:06:31.238Z,3.38
2022-08-09T18:12:05.517Z,3.28
2022-08-09T18:16:58.392Z,11.77
2022-08-09T18:22:01.464Z,7.80
2022-08-09T18:27:03.822Z,8.32
2022-08-09T18:32:09.668Z,5.30
2022-08-09T18:37:48.119Z,4.80
2022-08-09T18:42:34.882Z,4.40
2022-08-09T18:47:38.814Z,5.45
2022-08-09T18:52:42.768Z,5.28
2022-08-09T18:57:45.563Z,4.90
2022-08-09T19:02:50.951Z,5.32
2022-08-09T19:08:04.459Z,5.95
2022-08-09T19:13:18.437Z,5.35
2022-08-09T19:18:36.492Z,5.85
2022-08-09T19:24:33.310Z,6.57
2022-08-09T19:29:15.427Z,5.95
2022-08-09T19:34:22.632Z,7.38
2022-08-09T19:39:29.238Z,6.25
2022-08-09T19:44:51.266Z,6.35
2022-08-09T19:50:08.467Z,7.75
2022-08-09T19:55:16.654Z,8.40
2022-08-09T20:00:21.575Z,9.18
2022-08-09T20:05:24.934Z,11.18
2022-08-09T20:10:36.463Z,10.15
2022-08-09T20:21:02.010Z,8.18
2022-08-09T20:26:04.413Z,7.75
2022-08-09T20:31:09.279Z,8.43
2022-08-09T20:36:12.499Z,7.88
2022-08-09T20:41:14.860Z,7.60
2022-08-09T20:46:42.341Z,7.75
2022-08-09T20:51:40.924Z,9.30
2022-08-09T20:56:49.723Z,7.90
2022-08-09T21:01:55.630Z,9.75
2022-08-09T21:06:57.784Z,6.88
2022-08-09T21:18:21.221Z,6.43
2022-08-09T21:27:52.681Z,4.80
2022-08-09T21:32:55.299Z,5.63
2022-08-09T21:38:00.523Z,5.43
2022-08-09T21:43:06.194Z,4.70
2022-08-09T21:48:08.589Z,4.35
2022-08-09T21:53:19.804Z,4.13
2022-08-09T21:58:32.861Z,4.03
2022-08-09T22:03:59.256Z,4.25
2022-08-09T22:09:00.269Z,3.67
2022-08-09T22:14:02.924Z,4.28
2022-08-09T22:19:53.395Z,4.03
2022-08-09T22:24:26.985Z,4.43
2022-08-09T22:29:46.579Z,3.72
2022-08-09T22:40:20.032Z,3.58
2022-08-09T22:48:10.775Z,4.05
2022-08-09T22:50:53.098Z,3.70
2022-08-09T22:56:31.133Z,3.17
2022-08-09T23:01:18.108Z,2.95
2022-08-09T23:06:20.386Z,3.30
2022-08-09T23:11:37.902Z,3.53
2022-08-09T23:21:42.168Z,2.85
2022-08-09T23:26:44.837Z,3.10
2022-08-09T23:31:50.175Z,2.88
2022-08-09T23:36:54.482Z,2.90
2022-08-09T23:46:58.449Z,2.50
2022-08-09T23:57:02.504Z,1.90
